Time;durP1;ratioP1;P1;durP2;ratioP2;P2;SDS_P1;SDS_P2;PMS_P1;PMS_P2;Temp;Humidity;BMP_temperature;BMP_pressure;BME280_temperature;BME280_humidity;BME280_pressure;Samples;Min_cycle;Max_cycle;Signal;HPM_P1;HPM_P2
2022/08/18 00:01:44;;;;;;;26.05;8.27;;;;;;;;;;6206415;23;20085;-82
2022/08/18 00:04:10;;;;;;;21.42;7.13;;;;;;;;;;6207004;23;20048;-78
2022/08/18 00:06:37;;;;;;;25.15;7.43;;;;;;;;;;6208242;23;20020;-80
2022/08/18 00:09:04;;;;;;;24.65;7.82;;;;;;;;;;6208234;23;20048;-82
2022/08/18 00:11:32;;;;;;;26.85;7.95;;;;;;;;;;6210489;23;20017;-83
2022/08/18 00:13:58;;;;;;;31.80;7.63;;;;;;;;;;6207813;23;20036;-81
2022/08/18 00:16:24;;;;;;;21.17;6.57;;;;;;;;;;6209788;23;20092;-82
2022/08/18 00:18:50;;;;;;;21.38;6.18;;;;;;;;;;6207310;23;20023;-80
2022/08/18 00:21:17;;;;;;;17.45;5.18;;;;;;;;;;6183437;23;20017;-80
2022/08/18 00:23:43;;;;;;;19.48;6.18;;;;;;;;;;6207300;23;20021;-79
2022/08/18 00:26:09;;;;;;;24.75;6.57;;;;;;;;;;6209581;23;20017;-81
2022/08/18 00:28:35;;;;;;;18.42;5.97;;;;;;;;;;6208231;23;20044;-82
2022/08/18 00:31:07;;;;;;;16.05;5.93;;;;;;;;;;6208811;23;20016;-80
2022/08/18 00:33:33;;;;;;;26.75;5.90;;;;;;;;;;6181940;23;20147;-80
2022/08/18 00:35:59;;;;;;;23.48;5.90;;;;;;;;;;6207572;23;20017;-81
2022/08/18 00:38:35;;;;;;;18.92;5.60;;;;;;;;;;6210711;23;20102;-79
2022/08/18 00:41:01;;;;;;;17.45;6.47;;;;;;;;;;6182974;23;20017;-80
2022/08/18 00:43:44;;;;;;;23.80;5.97;;;;;;;;;;6209484;23;20029;-79
2022/08/18 00:46:25;;;;;;;21.98;6.72;;;;;;;;;;6206895;23;20024;-79
2022/08/18 00:49:03;;;;;;;22.70;7.47;;;;;;;;;;6209578;23;20091;-82
2022/08/18 00:51:44;;;;;;;21.08;6.50;;;;;;;;;;6208650;23;20123;-84
2022/08/18 00:54:20;;;;;;;27.75;7.47;;;;;;;;;;6207898;23;20015;-84
2022/08/18 00:56:48;;;;;;;26.38;7.18;;;;;;;;;;6157545;23;20025;-82
2022/08/18 00:59:23;;;;;;;25.67;5.82;;;;;;;;;;6206707;23;20023;-82
2022/08/18 01:01:49;;;;;;;27.08;7.40;;;;;;;;;;6158332;23;20035;-79
2022/08/18 01:04:20;;;;;;;19.80;6.10;;;;;;;;;;6207828;23;20044;-81
2022/08/18 01:06:51;;;;;;;14.02;4.82;;;;;;;;;;6209252;23;20020;-83
2022/08/18 01:09:29;;;;;;;20.35;5.70;;;;;;;;;;6208274;23;20389;-81
2022/08/18 01:11:55;;;;;;;12.02;4.65;;;;;;;;;;6181898;23;20020;-80
2022/08/18 01:14:21;;;;;;;12.52;4.55;;;;;;;;;;6210005;23;20415;-83
2022/08/18 01:22:35;;;;;;;20.77;7.45;;;;;;;;;;6222236;23;20673;-80
2022/08/18 01:27:46;;;;;;;26.13;8.98;;;;;;;;;;6223725;23;20036;-79
2022/08/18 01:30:16;;;;;;;25.77;9.25;;;;;;;;;;6213666;23;20020;-81
2022/08/18 01:32:44;;;;;;;28.95;9.70;;;;;;;;;;6213141;23;20024;-78
2022/08/18 01:35:11;;;;;;;24.52;9.15;;;;;;;;;;6207717;23;20460;-80
2022/08/18 01:37:38;;;;;;;22.45;9.38;;;;;;;;;;6209683;23;20056;-80
2022/08/18 01:40:07;;;;;;;23.15;8.85;;;;;;;;;;6205665;23;20017;-81
2022/08/18 01:42:34;;;;;;;17.55;7.80;;;;;;;;;;6182673;23;20020;-79
2022/08/18 01:45:03;;;;;;;24.63;8.65;;;;;;;;;;6180000;23;20025;-80
2022/08/18 01:47:30;;;;;;;27.08;9.68;;;;;;;;;;6208829;23;20230;-83
2022/08/18 01:49:57;;;;;;;19.90;7.95;;;;;;;;;;6206347;23;20019;-80
2022/08/18 01:52:23;;;;;;;21.02;8.48;;;;;;;;;;6181416;23;20025;-80
2022/08/18 01:54:50;;;;;;;22.13;7.60;;;;;;;;;;6154982;23;20083;-85
2022/08/18 01:57:17;;;;;;;28.23;8.93;;;;;;;;;;6207191;23;20020;-79
2022/08/18 01:59:43;;;;;;;25.08;8.50;;;;;;;;;;6133241;23;20017;-80
2022/08/18 02:02:13;;;;;;;24.48;8.80;;;;;;;;;;6207921;23;20027;-83
2022/08/18 02:04:46;;;;;;;19.00;7.93;;;;;;;;;;6182029;23;20020;-81
2022/08/18 02:07:15;;;;;;;28.55;9.15;;;;;;;;;;6180016;23;20465;-83
2022/08/18 02:09:45;;;;;;;38.92;9.30;;;;;;;;;;6183908;23;20025;-80
2022/08/18 02:12:30;;;;;;;18.42;7.72;;;;;;;;;;6204610;23;20024;-81
2022/08/18 02:14:56;;;;;;;26.30;7.93;;;;;;;;;;6180686;23;20036;-82
2022/08/18 02:17:25;;;;;;;22.85;7.72;;;;;;;;;;6205320;23;20377;-79
2022/08/18 02:19:52;;;;;;;21.38;8.43;;;;;;;;;;6208981;23;20017;-80
2022/08/18 02:22:19;;;;;;;19.20;9.50;;;;;;;;;;6180886;23;20023;-84
2022/08/18 02:24:46;;;;;;;23.35;8.30;;;;;;;;;;6207602;23;20078;-80
2022/08/18 02:27:13;;;;;;;21.70;8.93;;;;;;;;;;6208362;23;20043;-84
2022/08/18 02:29:40;;;;;;;23.98;8.93;;;;;;;;;;6204598;23;20461;-82
2022/08/18 02:32:09;;;;;;;32.75;9.18;;;;;;;;;;6182561;23;20135;-80
2022/08/18 02:34:35;;;;;;;23.55;9.30;;;;;;;;;;6205117;23;20099;-79
2022/08/18 02:37:04;;;;;;;29.85;10.32;;;;;;;;;;6207055;23;20515;-83
2022/08/18 02:39:33;;;;;;;30.90;9.85;;;;;;;;;;6205761;23;20023;-82
2022/08/18 02:41:59;;;;;;;26.80;9.48;;;;;;;;;;6208627;23;20802;-80
2022/08/18 02:44:25;;;;;;;29.35;11.25;;;;;;;;;;6180493;23;20017;-84
2022/08/18 02:46:51;;;;;;;25.40;10.32;;;;;;;;;;6207230;23;20107;-83
2022/08/18 02:49:26;;;;;;;27.45;9.95;;;;;;;;;;6207565;23;20099;-80
2022/08/18 02:51:53;;;;;;;26.80;9.52;;;;;;;;;;6206059;23;20107;-83
2022/08/18 02:54:23;;;;;;;23.73;9.95;;;;;;;;;;6207768;23;20032;-79
2022/08/18 02:56:50;;;;;;;24.35;8.90;;;;;;;;;;6205721;23;20021;-79
2022/08/18 02:59:18;;;;;;;35.13;9.35;;;;;;;;;;6207834;23;20471;-83
2022/08/18 03:01:46;;;;;;;27.08;8.68;;;;;;;;;;6206417;23;20020;-82
2022/08/18 03:04:14;;;;;;;24.05;8.93;;;;;;;;;;6181297;23;20031;-84
2022/08/18 03:06:40;;;;;;;26.40;7.88;;;;;;;;;;6206071;23;20017;-84
2022/08/18 03:09:07;;;;;;;25.30;7.90;;;;;;;;;;6180865;23;20055;-82
2022/08/18 03:11:34;;;;;;;18.17;6.28;;;;;;;;;;6208471;23;20021;-84
2022/08/18 03:14:00;;;;;;;22.15;7.20;;;;;;;;;;6179530;23;20024;-83
2022/08/18 03:16:29;;;;;;;23.17;6.95;;;;;;;;;;6206400;23;20123;-83
2022/08/18 03:18:56;;;;;;;22.70;7.30;;;;;;;;;;6205574;23;20036;-81
2022/08/18 03:21:23;;;;;;;16.83;6.57;;;;;;;;;;6207154;23;20016;-79
2022/08/18 03:23:51;;;;;;;19.38;6.25;;;;;;;;;;6179598;23;20020;-83
2022/08/18 03:29:03;;;;;;;19.98;6.28;;;;;;;;;;6207763;23;20021;-83
2022/08/18 03:31:30;;;;;;;20.73;6.88;;;;;;;;;;6178838;23;20055;-82
2022/08/18 03:34:04;;;;;;;21.83;6.43;;;;;;;;;;6208365;23;20384;-80
2022/08/18 03:36:37;;;;;;;28.27;7.38;;;;;;;;;;6204627;23;20020;-84
2022/08/18 03:39:07;;;;;;;17.63;6.30;;;;;;;;;;6208406;23;20021;-79
2022/08/18 03:41:34;;;;;;;23.67;7.60;;;;;;;;;;6207360;23;20028;-81
2022/08/18 03:44:01;;;;;;;18.10;6.55;;;;;;;;;;6209746;23;20485;-83
2022/08/18 03:46:28;;;;;;;27.67;8.23;;;;;;;;;;6208036;23;20126;-82
2022/08/18 03:48:56;;;;;;;17.90;7.65;;;;;;;;;;6209014;23;20523;-81
2022/08/18 03:51:24;;;;;;;24.23;8.05;;;;;;;;;;6208944;23;20017;-84
2022/08/18 03:54:00;;;;;;;29.60;8.45;;;;;;;;;;6181465;23;20495;-85
2022/08/18 03:56:32;;;;;;;24.02;8.35;;;;;;;;;;6208843;23;20021;-83
2022/08/18 03:59:00;;;;;;;30.00;9.18;;;;;;;;;;6208254;23;20016;-80
2022/08/18 04:01:28;;;;;;;18.90;7.88;;;;;;;;;;6210473;23;20756;-82
2022/08/18 04:04:01;;;;;;;25.17;8.82;;;;;;;;;;6186677;23;20013;-84
2022/08/18 04:06:38;;;;;;;17.17;7.80;;;;;;;;;;6209513;23;20020;-84
2022/08/18 04:09:05;;;;;;;26.25;8.48;;;;;;;;;;6209227;23;20385;-81
2022/08/18 04:11:32;;;;;;;16.13;7.90;;;;;;;;;;6207546;23;20067;-83
2022/08/18 04:13:59;;;;;;;18.98;8.82;;;;;;;;;;6210115;23;20013;-80
2022/08/18 04:16:29;;;;;;;24.77;8.02;;;;;;;;;;6181519;23;20051;-83
2022/08/18 04:18:58;;;;;;;26.38;9.63;;;;;;;;;;6211485;23;20024;-83
2022/08/18 04:21:32;;;;;;;23.52;7.72;;;;;;;;;;6183155;23;20032;-82
2022/08/18 04:24:01;;;;;;;17.60;7.80;;;;;;;;;;6184674;23;20062;-85
2022/08/18 04:26:28;;;;;;;22.33;7.93;;;;;;;;;;6210489;23;20454;-82
2022/08/18 04:28:54;;;;;;;15.60;7.18;;;;;;;;;;6212564;23;20079;-84
2022/08/18 04:31:25;;;;;;;21.02;7.60;;;;;;;;;;6185900;23;20093;-85
2022/08/18 04:34:01;;;;;;;18.17;7.80;;;;;;;;;;6208987;23;20107;-83
2022/08/18 04:36:27;;;;;;;20.60;7.93;;;;;;;;;;6184562;23;20020;-79
2022/08/18 04:38:54;;;;;;;17.88;8.05;;;;;;;;;;6207947;23;20020;-85
2022/08/18 04:41:25;;;;;;;17.65;8.88;;;;;;;;;;6209885;23;20025;-83
2022/08/18 04:43:51;;;;;;;22.15;8.80;;;;;;;;;;6209517;23;20042;-84
2022/08/18 04:46:18;;;;;;;19.60;8.48;;;;;;;;;;6212244;23;20024;-82
2022/08/18 04:48:44;;;;;;;17.88;7.88;;;;;;;;;;6219619;23;20036;-84
2022/08/18 04:51:11;;;;;;;24.92;7.50;;;;;;;;;;6222942;23;20016;-82
2022/08/18 04:53:44;;;;;;;19.30;8.93;;;;;;;;;;6198930;23;20052;-81
2022/08/18 04:56:13;;;;;;;22.77;8.38;;;;;;;;;;6224048;23;20465;-82
2022/08/18 04:58:39;;;;;;;20.10;7.63;;;;;;;;;;6219827;23;20488;-84
2022/08/18 05:01:05;;;;;;;17.80;7.70;;;;;;;;;;6213584;23;20021;-84
2022/08/18 05:03:33;;;;;;;17.50;7.32;;;;;;;;;;6210622;23;20028;-78
2022/08/18 05:05:59;;;;;;;19.33;8.20;;;;;;;;;;6206989;23;20047;-81
2022/08/18 05:08:25;;;;;;;20.10;9.43;;;;;;;;;;6207836;23;20021;-81
2022/08/18 05:10:58;;;;;;;13.23;7.45;;;;;;;;;;6179891;23;20018;-82
2022/08/18 05:13:25;;;;;;;19.00;7.63;;;;;;;;;;6211361;23;20603;-83
2022/08/18 05:16:02;;;;;;;19.67;8.77;;;;;;;;;;6209284;23;20016;-83
2022/08/18 05:18:29;;;;;;;23.55;8.15;;;;;;;;;;6206961;23;20021;-79
2022/08/18 05:20:55;;;;;;;19.05;8.55;;;;;;;;;;6209470;23;20504;-87
2022/08/18 05:23:22;;;;;;;27.23;8.00;;;;;;;;;;6155247;23;20040;-78
2022/08/18 05:25:49;;;;;;;17.30;8.27;;;;;;;;;;6208584;23;20023;-82
2022/08/18 05:28:16;;;;;;;20.23;7.40;;;;;;;;;;6179843;23;20027;-86
2022/08/18 05:30:50;;;;;;;18.92;8.15;;;;;;;;;;6208006;23;20124;-85
2022/08/18 05:33:16;;;;;;;13.45;6.85;;;;;;;;;;6181457;23;20021;-84
2022/08/18 05:35:45;;;;;;;17.63;7.40;;;;;;;;;;6208910;23;20021;-84
2022/08/18 05:38:27;;;;;;;18.30;7.70;;;;;;;;;;6207673;23;20046;-86
2022/08/18 05:41:04;;;;;;;12.43;6.43;;;;;;;;;;6207324;23;20126;-85
2022/08/18 05:43:31;;;;;;;19.45;7.30;;;;;;;;;;6208274;23;20061;-84
2022/08/18 05:46:04;;;;;;;17.77;7.45;;;;;;;;;;6182008;23;20020;-85
2022/08/18 05:48:42;;;;;;;18.40;7.80;;;;;;;;;;6157523;23;20457;-85
2022/08/18 05:51:22;;;;;;;20.73;7.00;;;;;;;;;;6179648;23;20023;-85
2022/08/18 05:56:45;;;;;;;21.98;7.20;;;;;;;;;;6205434;23;20032;-85
2022/08/18 05:59:32;;;;;;;18.30;7.25;;;;;;;;;;6177333;23;20024;-84
2022/08/18 06:02:03;;;;;;;20.75;7.07;;;;;;;;;;6154275;23;20028;-83
2022/08/18 06:04:38;;;;;;;27.67;7.93;;;;;;;;;;6202876;23;20129;-85
2022/08/18 06:07:19;;;;;;;22.38;6.45;;;;;;;;;;6209248;23;20017;-83
2022/08/18 06:09:50;;;;;;;20.63;7.13;;;;;;;;;;6180315;23;20023;-85
2022/08/18 06:12:21;;;;;;;20.88;7.10;;;;;;;;;;6177614;23;20036;-82
2022/08/18 06:14:48;;;;;;;21.27;6.95;;;;;;;;;;6205850;23;20074;-82
2022/08/18 06:17:43;;;;;;;19.73;7.05;;;;;;;;;;6176690;23;20021;-85
2022/08/18 06:20:25;;;;;;;18.30;6.45;;;;;;;;;;6174094;23;20020;-83
2022/08/18 06:23:13;;;;;;;24.70;6.80;;;19.60;99.90;;;;;;6208599;23;20020;-81
2022/08/18 06:25:39;;;;;;;20.77;6.32;;;;;;;;;;6207625;23;20082;-84
2022/08/18 06:28:07;;;;;;;18.05;5.75;;;;;;;;;;6208595;23;20099;-84
2022/08/18 06:30:37;;;;;;;23.45;6.90;;;;;;;;;;6206549;23;20346;-83
2022/08/18 06:33:32;;;;;;;19.13;5.07;;;;;;;;;;6183554;23;20024;-85
2022/08/18 06:36:20;;;;;;;30.15;6.30;;;;;;;;;;6208092;23;20337;-81
2022/08/18 06:39:12;;;;;;;19.20;6.63;;;;;;;;;;6156120;23;20013;-81
2022/08/18 06:41:52;;;;;;;17.10;6.05;;;;;;;;;;6150556;23;20078;-81
2022/08/18 06:44:31;;;;;;;21.80;6.38;;;;;;;;;;6153230;23;20527;-85
2022/08/18 06:47:20;;;;;;;19.63;6.05;;;;;;;;;;6180977;23;20535;-79
2022/08/18 06:49:55;;;;;;;22.95;6.60;;;;;;;;;;6206734;23;20028;-82
2022/08/18 06:52:21;;;;;;;15.30;6.30;;;;;;;;;;6178548;23;20008;-82
2022/08/18 06:54:47;;;;;;;21.52;7.32;;;;;;;;;;6181040;23;20358;-81
2022/08/18 06:57:26;;;;;;;21.27;7.15;;;;;;;;;;6179531;23;21427;-79
2022/08/18 07:00:01;;;;;;;19.83;7.53;;;;;;;;;;6181645;23;20520;-80
2022/08/18 07:02:44;;;;;;;13.57;6.03;;;;;;;;;;6205178;23;20031;-86
2022/08/18 07:05:13;;;;;;;14.73;6.40;;;;;;;;;;6207448;23;20074;-79
2022/08/18 07:07:40;;;;;;;19.48;5.95;;;;;;;;;;6207055;23;20016;-80
2022/08/18 07:10:19;;;;;;;22.27;5.95;;;;;;;;;;6206499;23;20020;-80
2022/08/18 07:12:45;;;;;;;31.88;5.63;;;;;;;;;;6208069;23;20023;-83
2022/08/18 07:15:12;;;;;;;19.45;5.15;;;;;;;;;;6204494;23;20016;-79
2022/08/18 07:17:48;;;;;;;16.83;4.97;;;;;;;;;;6208020;23;20017;-85
2022/08/18 07:20:19;;;;;;;23.83;5.28;;;;;;;;;;6204612;23;20020;-85
2022/08/18 07:23:03;;;;;;;17.25;5.43;;;;;;;;;;6206871;23;20025;-79
2022/08/18 07:25:29;;;;;;;;;;;;;;;;;;6207196;23;20016;-84
2022/08/18 07:27:56;;;;;;;16.73;4.53;;;;;;;;;;6206395;23;19938;-83
2022/08/18 07:30:28;;;;;;;19.35;4.97;;;;;;;;;;6206371;23;20016;-85
2022/08/18 07:32:59;;;;;;;19.60;4.95;;;;;;;;;;6203758;23;20416;-84
2022/08/18 07:35:38;;;;;;;15.63;4.82;;;;;;;;;;6206482;23;20397;-82
2022/08/18 07:38:16;;;;;;;15.80;4.55;;;;;;;;;;6203901;23;20047;-83
2022/08/18 07:43:50;;;;;;;15.35;4.00;;;;;;;;;;6203686;23;20718;-80
2022/08/18 07:46:32;;;;;;;12.80;3.67;;;;;;;;;;6176213;23;20020;-81
2022/08/18 07:48:58;;;;;;;15.38;3.38;;;;;;;;;;6153671;23;20032;-78
2022/08/18 07:51:42;;;;;;;12.18;4.28;;;;;;;;;;6202511;23;20017;-78
2022/08/18 07:54:11;;;;;;;15.85;3.75;;;;;;;;;;6177986;23;20095;-82
2022/08/18 07:56:42;;;;;;;18.08;4.22;;;;;;;;;;6201593;23;20044;-84
2022/08/18 07:59:11;;;;;;;14.52;4.13;;;;;;;;;;6204975;23;20025;-84
2022/08/18 08:01:52;;;;;;;11.18;3.10;;;;;;;;;;6203143;23;20055;-82
2022/08/18 08:04:45;;;;;;;11.43;3.92;;;;;;;;;;6206320;23;20021;-78
2022/08/18 08:07:21;;;;;;;11.88;3.22;;;;;;;;;;6152560;23;20716;-83
2022/08/18 08:10:12;;;;;;;10.75;3.38;;;;;;;;;;6206939;23;20024;-84
2022/08/18 08:12:38;;;;;;;14.65;3.97;;;;;;;;;;6220402;23;20040;-80
2022/08/18 08:15:12;;;;;;;11.02;3.22;;;;;;;;;;6224915;23;20024;-80
2022/08/18 08:17:52;;;;;;;6.78;2.90;;;;;;;;;;6176999;23;20043;-80
2022/08/18 08:20:26;;;;;;;12.88;3.08;;;;;;;;;;6201463;23;20020;-80
2022/08/18 08:22:52;;;;;;;11.25;3.35;;;;;;;;;;6219519;23;20062;-85
2022/08/18 08:25:32;;;;;;;14.15;2.95;;;;;;;;;;6216410;23;20017;-81
2022/08/18 08:28:17;;;;;;;14.25;2.97;;;;;;;;;;6214962;23;20020;-79
2022/08/18 08:30:48;;;;;;;13.23;2.97;;;;;;;;;;6215238;23;20115;-80
2022/08/18 08:33:47;;;;;;;9.93;2.80;;;;;;;;;;6210721;23;20020;-79
2022/08/18 08:36:16;;;;;;;14.52;2.88;;;;;;;;;;6126816;23;20449;-81
2022/08/18 08:38:54;;;;;;;9.77;2.78;;;;;;;;;;6211042;23;20422;-80
2022/08/18 08:41:57;;;;;;;6.65;2.80;;;19.70;99.90;;;;;;6207658;23;20021;-81
2022/08/18 08:44:34;;;;;;;12.50;3.42;;;;;;;;;;6209323;23;20528;-80
2022/08/18 08:47:07;;;;;;;11.30;3.22;;;;;;;;;;6210488;23;20913;-80
2022/08/18 08:49:46;;;;;;;9.57;2.95;;;;;;;;;;6182803;23;20078;-79
2022/08/18 08:52:22;;;;;;;8.77;2.72;;;;;;;;;;6184215;23;20032;-83
2022/08/18 08:54:55;;;;;;;10.80;2.78;;;;;;;;;;6208547;23;20060;-81
2022/08/18 08:57:31;;;;;;;8.80;2.60;;;;;;;;;;6210216;23;20021;-81
2022/08/18 08:59:58;;;;;;;10.35;2.58;;;;;;;;;;6209803;23;20028;-81
2022/08/18 09:02:43;;;;;;;9.13;2.90;;;;;;;;;;6182086;23;20544;-80
2022/08/18 09:05:16;;;;;;;9.75;2.83;;;;;;;;;;6184291;23;20070;-82
2022/08/18 09:08:01;;;;;;;9.40;2.90;;;;;;;;;;6182150;23;20075;-81
2022/08/18 09:10:31;;;;;;;8.40;2.75;;;;;;;;;;6209739;23;20024;-84
2022/08/18 09:12:57;;;;;;;12.02;2.67;;;;;;;;;;6182610;23;20108;-84
2022/08/18 09:15:32;;;;;;;12.32;2.63;;;;;;;;;;6181936;23;20639;-81
2022/08/18 09:18:08;;;;;;;10.25;2.60;;;;;;;;;;6210119;23;20052;-81
2022/08/18 09:20:34;;;;;;;7.82;2.58;;;;;;;;;;6207562;23;20427;-80
2022/08/18 09:23:08;;;;;;;9.30;3.10;;;;;;;;;;6183062;23;20097;-81
2022/08/18 09:25:45;;;;;;;8.27;2.83;;;;;;;;;;6155635;23;20028;-79
2022/08/18 09:28:17;;;;;;;9.88;2.88;;;;;;;;;;6211245;23;20446;-81
2022/08/18 09:31:16;;;;;;;10.32;2.80;;;;;;;;;;6181849;23;20039;-82
2022/08/18 09:33:53;;;;;;;6.60;2.78;;;;;;;;;;6184165;23;20083;-84
2022/08/18 09:36:28;;;;;;;10.15;3.50;;;;;;;;;;6160228;23;20031;-82
2022/08/18 09:41:50;;;;;;;14.57;3.58;;;;;;;;;;6181961;23;20072;-82
2022/08/18 09:44:37;;;;;;;16.33;3.53;;;;;;;;;;6182042;23;20048;-81
2022/08/18 09:47:03;;;;;;;11.43;2.88;;;;;;;;;;6180719;23;20024;-81
2022/08/18 09:49:29;;;;;;;9.90;2.67;;;;;;;;;;6183846;23;20326;-82
2022/08/18 09:52:21;;;;;;;14.63;3.15;;;;;;;;;;6182002;23;20031;-82
2022/08/18 09:54:51;;;;;;;11.43;3.05;;;;;;;;;;6210421;23;20028;-81
2022/08/18 09:57:23;;;;;;;10.57;3.60;;;;;;;;;;6158205;23;20095;-82
2022/08/18 09:59:49;;;;;;;17.25;3.97;;;;;;;;;;6209864;23;20055;-79
2022/08/18 10:02:36;;;;;;;13.55;3.45;;;;;;;;;;6183131;23;20095;-81
2022/08/18 10:05:18;;;;;;;19.13;4.30;;;;;;;;;;6205114;23;20505;-80
2022/08/18 10:07:45;;;;;;;9.75;3.20;;;;;;;;;;6182501;23;20025;-79
2022/08/18 10:10:17;;;;;;;13.85;3.10;;;;;;;;;;6181312;23;20025;-80
2022/08/18 10:12:44;;;;;;;17.75;3.70;;;;;;;;;;6208508;23;20082;-81
2022/08/18 10:15:22;;;;;;;8.88;3.25;;;;;;;;;;6181189;23;20058;-79
2022/08/18 10:17:53;;;;;;;7.90;2.78;;;;;;;;;;6155215;23;20016;-79
2022/08/18 10:20:30;;;;;;;10.35;2.65;;;;;;;;;;6181927;23;20568;-82
2022/08/18 10:22:56;;;;;;;7.35;2.67;;;;;;;;;;6205435;23;20055;-79
2022/08/18 10:25:45;;;;;;;8.50;3.00;;;;;;;;;;6208033;23;20020;-83
2022/08/18 10:28:33;;;;;;;6.93;2.50;;;;;;;;;;6181363;23;20025;-79
2022/08/18 10:31:01;;;;;;;10.15;2.75;;;;;;;;;;6179020;23;20019;-79
2022/08/18 10:37:07;;;;;;;9.20;2.20;;;;;;;;;;6175745;23;20046;-84
2022/08/18 10:43:21;;;;;;;5.85;1.88;;;20.70;99.90;;;;;;6180121;23;20029;-87
2022/08/18 10:49:12;;;;;;;7.32;2.03;;;;;;;;;;6184268;23;20042;-85
2022/08/18 11:01:53;;;;;;;9.48;2.10;;;;;;;;;;6215095;23;20038;-85
2022/08/18 11:04:31;;;;;;;8.60;2.40;;;;;;;;;;6189830;22;20043;-86
2022/08/18 11:07:05;;;;;;;5.50;2.13;;;;;;;;;;6187707;23;20029;-86
2022/08/18 11:09:32;;;;;;;3.95;1.73;;;;;;;;;;6188346;23;20488;-86
2022/08/18 11:12:00;;;;;;;3.92;2.20;;;;;;;;;;6187957;23;20012;-87
2022/08/18 11:18:00;;;;;;;8.20;2.13;;;;;;;;;;6189933;22;20103;-87
2022/08/18 11:23:47;;;;;;;7.25;2.03;;;;;;;;;;6237574;23;20099;-87
2022/08/18 11:29:52;;;;;;;3.83;2.10;;;;;;;;;;6242045;23;20406;-87
2022/08/18 11:36:08;;;;;;;3.95;2.10;;;;;;;;;;5985918;23;20655;-88
2022/08/18 11:45:23;;;;;;;7.93;2.25;;;;;;;;;;6103140;23;20394;-86
2022/08/18 11:51:37;;;;;;;3.40;1.97;;;;;;;;;;6216840;23;20028;-85
2022/08/18 11:54:03;;;;;;;6.30;2.17;;;;;;;;;;6214987;23;20449;-87
2022/08/18 11:59:54;;;;;;;8.38;2.60;;;;;;;;;;6217888;23;20024;-89
2022/08/18 12:02:27;;;;;;;6.72;2.10;;;;;;;;;;6192215;23;20449;-85
2022/08/18 12:05:02;;;;;;;5.95;1.90;;;;;;;;;;6165740;23;20017;-87
2022/08/18 12:07:42;;;;;;;5.95;2.20;;;;;;;;;;6194966;23;20733;-86
2022/08/18 12:10:23;;;;;;;4.78;1.83;;;;;;;;;;6220924;23;20027;-88
2022/08/18 12:13:05;;;;;;;7.65;1.67;;;;;;;;;;6197916;23;20084;-86
2022/08/18 12:15:46;;;;;;;5.63;2.45;;;;;;;;;;6145293;23;20021;-87
2022/08/18 12:21:32;;;;;;;7.05;2.05;;;;;;;;;;6191072;23;20117;-86
2022/08/18 12:24:24;;;;;;;4.93;2.00;;;;;;;;;;6212135;23;20101;-85
2022/08/18 12:27:03;;;;;;;8.38;2.67;;;;;;;;;;6118070;23;20067;-87
2022/08/18 12:29:30;;;;;;;5.80;2.30;;;;;;;;;;6185602;23;20068;-86
2022/08/18 12:32:07;;;;;;;8.90;2.15;;;;;;;;;;6162630;23;20063;-91
2022/08/18 12:40:38;;;;;;;2.97;1.45;;;;;;;;;;6247209;23;20380;-91
2022/08/18 12:43:38;;;;;;;5.90;2.05;;;;;;;;;;6245296;23;20020;-90
2022/08/18 12:46:05;;;;;;;5.28;1.90;;;;;;;;;;6245179;23;20100;-86
2022/08/18 12:48:43;;;;;;;3.83;2.03;;;;;;;;;;6218997;23;20028;-88
2022/08/18 12:51:22;;;;;;;3.88;1.90;;;;;;;;;;6192134;23;20103;-84
2022/08/18 12:53:54;;;;;;;5.78;2.20;;;;;;;;;;6193499;23;20023;-90
2022/08/18 12:56:58;;;;;;;7.32;1.92;;;;;;;;;;6192619;23;20042;-86
2022/08/18 13:02:43;;;;;;;3.05;1.60;;;;;;;;;;6162447;23;20275;-86
2022/08/18 13:05:20;;;;;;;;;;;;;;;;;;;;;
2022/08/18 13:11:09;;;;;;;4.70;1.85;;;;;;;;;;6117471;23;20025;-87
2022/08/18 13:14:06;;;;;;;1.95;1.75;;;;;;;;;;6071436;23;20033;-87
2022/08/18 13:19:56;;;;;;;3.60;1.70;;;;;;;;;;6119540;23;20053;-85
2022/08/18 13:22:39;;;;;;;3.72;1.90;;;;;;;;;;6071612;23;20029;-86
2022/08/18 13:25:20;;;;;;;2.78;1.50;;;;;;;;;;6094611;23;20022;-85
2022/08/18 13:27:50;;;;;;;4.20;1.77;;;;;;;;;;6069456;23;20755;-88
2022/08/18 13:30:36;;;;;;;3.38;1.60;;;;;;;;;;6083318;23;20549;-88
2022/08/18 13:33:03;;;;;;;2.22;1.40;;;;;;;;;;6188802;23;20023;-87
2022/08/18 13:39:02;;;;;;;2.08;1.40;;;;;;;;;;6244096;23;20023;-87
2022/08/18 13:41:44;;;;;;;2.47;1.67;;;;;;;;;;6238774;23;20027;-88
2022/08/18 13:44:25;;;;;;;5.35;1.92;;;;;;;;;;6188959;23;20094;-86
2022/08/18 13:46:54;;;;;;;4.53;1.42;;;;;;;;;;6188795;23;20031;-88
2022/08/18 13:49:24;;;;;;;2.55;1.40;;;;;;;;;;6217894;23;20016;-86
2022/08/18 13:51:54;;;;;;;2.88;1.65;;;;;;;;;;6191371;22;20697;-85
2022/08/18 14:07:04;;;;;;;4.03;1.63;;;;;;;;;;6243861;22;20043;-83
2022/08/18 14:09:30;;;;;;;1.92;1.25;;;;;;;;;;6235029;23;20116;-86
2022/08/18 14:11:57;;;;;;;3.28;1.45;;;;;;;;;;6240153;23;20943;-85
2022/08/18 14:14:26;;;;;;;6.05;1.60;;;;;;;;;;6186818;23;20392;-85
2022/08/18 14:17:02;;;;;;;2.55;1.23;;;;;;;;;;6189806;23;20027;-85
2022/08/18 14:32:40;;;;;;;5.18;1.40;;;;;;;;;;6237844;23;20027;-85
2022/08/18 14:35:08;;;;;;;3.65;1.30;;;;;;;;;;6190291;23;20021;-87
2022/08/18 14:37:34;;;;;;;2.13;1.35;;;;;;;;;;6241072;23;20016;-85
2022/08/18 14:40:00;;;;;;;2.38;1.33;;;;;;;;;;6191829;23;20028;-85
2022/08/18 14:42:38;;;;;;;3.38;1.52;;;;;;;;;;6215028;23;20028;-87
2022/08/18 14:50:54;;;;;;;5.10;1.35;;;;;;;;;;6217795;23;20384;-86
2022/08/18 15:00:18;;;;;;;3.38;1.75;;;;;;;;;;6132173;23;20028;-86
2022/08/18 15:02:45;;;;;;;2.85;1.40;;;;;;;;;;6133663;23;20370;-85
2022/08/18 15:08:18;;;;;;;;;;;22.40;99.90;;;;;;6153251;23;20258;-87
2022/08/18 15:11:06;;;;;;;1.95;1.33;;;;;;;;;;6166553;23;20298;-87
2022/08/18 15:17:07;;;;;;;7.60;2.42;;;;;;;;;;6064476;23;20083;-87
2022/08/18 15:28:40;;;;;;;4.20;1.70;;;;;;;;;;6242714;22;20072;-84
2022/08/18 15:31:11;;;;;;;3.13;1.60;;;;;;;;;;6124372;23;20349;-85
2022/08/18 15:33:37;;;;;;;1.85;1.17;;;;;;;;;;6099413;23;20097;-86
2022/08/18 15:46:22;;;;;;;2.90;1.10;;;;;;;;;;6247493;23;20071;-85
2022/08/18 15:49:08;;;;;;;;;;;;;;;;;;;;;
2022/08/18 16:02:27;;;;;;;3.42;1.40;;;;;;;;;;6251438;23;20470;-88
2022/08/18 16:04:53;;;;;;;5.47;1.42;;;;;;;;;;6194690;23;20023;-85
2022/08/18 16:07:21;;;;;;;3.78;1.30;;;;;;;;;;6190910;23;20020;-86
2022/08/18 16:09:47;;;;;;;2.65;1.20;;;;;;;;;;6218408;23;20507;-88
2022/08/18 16:12:13;;;;;;;4.15;1.25;;;;;;;;;;6240430;23;20129;-87
2022/08/18 16:14:39;;;;;;;2.78;1.30;;;;;;;;;;6243327;23;20020;-85
2022/08/18 16:17:09;;;;;;;9.10;1.50;;;;;;;;;;6189479;23;20047;-86
2022/08/18 16:19:35;;;;;;;4.65;1.95;;;;;;;;;;6217658;23;20048;-85
2022/08/18 16:22:05;;;;;;;4.38;1.38;;;;;;;;;;6190218;23;20022;-86
2022/08/18 16:24:31;;;;;;;2.45;1.08;;;;;;;;;;6217746;23;20016;-85
2022/08/18 16:26:57;;;;;;;2.70;1.30;;;;;;;;;;6216231;23;20020;-84
2022/08/18 16:29:25;;;;;;;3.45;1.25;;;;;;;;;;6215611;23;20016;-83
2022/08/18 16:31:51;;;;;;;3.03;1.30;;;;;;;;;;6187645;23;20090;-87
2022/08/18 16:34:19;;;;;;;2.88;1.15;;;;;;;;;;6190309;23;20028;-87
2022/08/18 16:36:45;;;;;;;3.08;1.33;;;;;;;;;;6242066;23;21002;-87
2022/08/18 16:39:13;;;;;;;7.40;1.63;;;;;;;;;;6215124;23;20061;-88
2022/08/18 16:41:39;;;;;;;2.97;1.25;;;;;;;;;;6217093;23;20032;-86
2022/08/18 16:44:32;;;;;;;4.15;1.38;;;;;;;;;;6190952;23;20024;-85
2022/08/18 16:47:39;;;;;;;2.72;1.40;;;;;;;;;;6217241;23;20023;-88
2022/08/18 16:50:09;;;;;;;4.20;1.52;;;;;;;;;;6191522;23;20109;-87
2022/08/18 16:52:38;;;;;;;2.65;1.30;;;;;;;;;;6217057;23;20016;-84
2022/08/18 16:55:05;;;;;;;5.35;1.50;;;;;;;;;;6190113;23;20023;-85
2022/08/18 17:05:39;;;;;;;4.65;1.50;;;;;;;;;;6195498;23;20032;-87
2022/08/18 17:11:21;;;;;;;4.32;1.80;;;;;;;;;;6159581;22;20348;-84
2022/08/18 17:13:48;;;;;;;2.97;1.63;;;;;;;;;;6186307;23;20419;-86
2022/08/18 17:16:15;;;;;;;4.90;1.52;;;;;;;;;;6166046;23;20040;-85
2022/08/18 17:18:44;;;;;;;4.20;1.40;;;;;;;;;;6178738;23;20050;-83
2022/08/18 17:21:25;;;;;;;3.67;1.85;;;;;;;;;;6186081;23;20064;-85
2022/08/18 17:30:06;;;;;;;4.60;1.77;;;;;;;;;;6239905;22;20077;-83
2022/08/18 17:32:37;;;;;;;2.90;1.48;;;;;;;;;;6209128;23;20035;-84
2022/08/18 17:38:48;;;;;;;2.97;1.00;;;;;;;;;;6207439;22;20054;-84
2022/08/18 17:41:16;;;;;;;7.07;1.67;;;;;;;;;;6188356;23;20353;-85
2022/08/18 17:43:45;;;;;;;5.35;1.50;;;;;;;;;;6190098;23;20149;-83
2022/08/18 17:46:31;;;;;;;2.72;1.55;;;;;;;;;;6187600;23;20172;-85
2022/08/18 17:49:17;;;;;;;6.82;1.50;;;;;;;;;;6191282;22;20046;-85
2022/08/18 17:51:52;;;;;;;5.55;1.52;;;;;;;;;;6185407;23;20099;-84
2022/08/18 17:54:20;;;;;;;3.88;1.65;;;;;;;;;;6237625;23;20020;-85
2022/08/18 17:57:07;;;;;;;4.57;1.33;;;;;;;;;;6210342;23;20027;-85
2022/08/18 17:59:52;;;;;;;3.45;1.33;;;;;;;;;;6211898;23;20056;-86
2022/08/18 18:02:32;;;;;;;4.38;1.20;;;;;;;;;;6184403;23;20016;-85
2022/08/18 18:07:51;;;;;;;2.22;0.93;;;;;;;;;;6238963;22;20035;-85
2022/08/18 18:10:53;;;;;;;4.13;1.60;;;;;;;;;;6237287;23;20109;-85
2022/08/18 18:13:23;;;;;;;5.30;1.45;;;;;;;;;;6212636;23;20471;-86
2022/08/18 18:15:57;;;;;;;7.55;1.50;;;;;;;;;;6213192;23;20019;-85
2022/08/18 18:18:25;;;;;;;5.82;1.75;;;;;;;;;;6186858;23;20027;-87